Time;durP1;ratioP1;P1;durP2;ratioP2;P2;SDS_P1;SDS_P2;PMS_P1;PMS_P2;Temp;Humidity;BMP_temperature;BMP_pressure;BME280_temperature;BME280_humidity;BME280_pressure;Samples;Min_cycle;Max_cycle;Signal;HPM_P1;HPM_P2
2021/04/10 00:02:23;;;;;;;5.67;5.17;;;;;;;;;;5088576;28;20180;-61
2021/04/10 00:04:49;;;;;;;5.30;4.80;;;;;;;;;;5079211;28;20192;-62
2021/04/10 00:07:15;;;;;;;4.53;4.13;;;;;;;;;;5053398;28;20179;-61
2021/04/10 00:09:41;;;;;;;4.53;4.13;;;;;;;;;;5082416;28;20654;-61
2021/04/10 00:12:07;;;;;;;5.40;4.10;;;;;;;;;;5056293;28;20215;-61
2021/04/10 00:14:34;;;;;;;5.30;4.80;;;;;;;;;;5068113;28;20196;-62
2021/04/10 00:17:00;;;;;;;6.20;5.00;;;;;;;;;;5090638;28;20203;-62
2021/04/10 00:19:26;;;;;;;5.07;4.57;;;;;;;;;;5062646;28;20219;-61
2021/04/10 00:21:52;;;;;;;5.70;4.80;;;;;;;;;;5085953;28;20255;-61
2021/04/10 00:24:18;;;;;;;6.10;5.50;;;;;;;;;;5086642;28;20697;-61
2021/04/10 00:26:44;;;;;;;5.27;4.70;;;;;;;;;;5058492;28;20267;-63
2021/04/10 00:29:10;;;;;;;7.30;5.63;;;;;;;;;;5078209;28;20211;-62
2021/04/10 00:31:36;;;;;;;6.30;5.67;;;;;;;;;;5090661;28;20180;-61
2021/04/10 00:34:02;;;;;;;6.27;5.67;;;;;;;;;;5084726;28;20218;-61
2021/04/10 00:36:28;;;;;;;5.17;4.70;;;;;;;;;;5072018;28;20167;-64
2021/04/10 00:38:54;;;;;;;7.17;5.57;;;;;;;;;;5058802;28;20187;-61
2021/04/10 00:41:21;;;;;;;6.03;5.43;;;;;;;;;;5087561;28;20175;-61
2021/04/10 00:43:47;;;;;;;6.73;5.93;;;;;;;;;;5088600;28;20233;-62
2021/04/10 00:46:13;;;;;;;5.17;4.67;;;;;;;;;;5090860;28;20587;-61
2021/04/10 00:48:39;;;;;;;5.20;4.73;;;;;;;;;;5080441;28;20184;-62
2021/04/10 00:51:05;;;;;;;6.47;5.83;;;;;;;;;;5090814;28;20237;-62
2021/04/10 00:53:32;;;;;;;5.23;4.73;;;;;;;;;;5065493;28;20206;-61
2021/04/10 00:56:00;;;;;;;5.13;4.67;;;;;;;;;;5062863;28;20175;-62
2021/04/10 00:58:26;;;;;;;6.07;5.47;;;;;;;;;;5069622;28;20172;-62
2021/04/10 01:00:52;;;;;;;5.87;5.20;;;;;;;;;;5070661;28;20646;-62
2021/04/10 01:03:18;;;;;;;6.77;6.07;;;;;;;;;;5071560;28;20196;-62
2021/04/10 01:05:44;;;;;;;6.30;5.57;;;;;;;;;;5089799;28;20175;-62
2021/04/10 01:08:11;;;;;;;6.30;5.70;;;;;;;;;;5057380;28;20176;-61
2021/04/10 01:10:37;;;;;;;6.77;5.73;;;;;;;;;;5086063;28;20191;-61
2021/04/10 01:13:22;;;;;;;7.30;5.93;;;;;;;;;;5088114;28;20629;-62
2021/04/10 01:15:51;;;;;;;6.13;5.40;;;;;;;;;;5072212;28;20188;-61
2021/04/10 01:18:23;;;;;;;6.17;5.37;;;;;;;;;;5064277;28;20200;-62
2021/04/10 01:20:59;;;;;;;5.97;5.40;;;;;;;;;;5090320;28;20171;-62
2021/04/10 01:23:32;;;;;;;5.67;5.07;;;;;;;;;;5070281;28;20641;-62
2021/04/10 01:26:00;;;;;;;5.40;4.90;;;;;;;;;;5083247;28;20232;-61
2021/04/10 01:28:26;;;;;;;8.03;6.47;;;;;;;;;;5089730;28;20219;-61
2021/04/10 01:30:53;;;;;;;5.70;4.73;;;;;;;;;;5053469;28;20657;-62
2021/04/10 01:33:19;;;;;;;5.97;5.17;;;;;;;;;;5083914;28;20239;-62
2021/04/10 01:35:49;;;;;;;5.40;4.90;;;;;;;;;;5071930;28;20650;-63
2021/04/10 01:38:16;;;;;;;6.63;6.03;;;;;;;;;;5083424;28;20185;-64
2021/04/10 01:40:42;;;;;;;7.07;5.90;;;;;;;;;;5092009;28;20697;-62
2021/04/10 01:43:09;;;;;;;5.47;4.97;;;;;;;;;;5094099;28;20533;-62
2021/04/10 01:45:36;;;;;;;6.40;5.77;;;;;;;;;;5075614;28;20191;-62
2021/04/10 01:48:06;;;;;;;5.93;5.40;;;;;;;;;;5094217;28;20206;-62
2021/04/10 01:50:33;;;;;;;6.00;5.40;;;;;;;;;;5093696;28;20196;-61
2021/04/10 01:52:59;;;;;;;5.70;5.20;;;;;;;;;;5080110;28;20231;-62
2021/04/10 01:55:26;;;;;;;5.70;5.20;;;;;;;;;;5076059;28;20183;-63
2021/04/10 01:57:52;;;;;;;8.80;6.27;;;;;;;;;;5090139;28;20253;-61
2021/04/10 02:00:20;;;;;;;7.10;5.77;;;;;;;;;;5092216;28;20199;-63
2021/04/10 02:02:46;;;;;;;6.63;6.00;;;;;;;;;;5093511;28;20175;-62
2021/04/10 02:05:15;;;;;;;6.20;5.60;;;;;;;;;;5057044;28;20176;-62
2021/04/10 02:07:42;;;;;;;7.10;6.40;;;;;;;;;;5075266;28;20580;-62
2021/04/10 02:10:09;;;;;;;7.03;6.40;;;;;;;;;;5085351;28;20186;-62
2021/04/10 02:12:35;;;;;;;6.47;5.87;;;;;;;;;;5055108;28;20246;-64
2021/04/10 02:15:01;;;;;;;7.50;6.80;;;;;;;;;;5087559;28;20188;-62
2021/04/10 02:17:28;;;;;;;7.70;7.00;;;;;;;;;;5091445;28;20654;-62
2021/04/10 02:19:55;;;;;;;7.07;6.37;;;;;;;;;;5085876;28;20267;-63
2021/04/10 02:22:23;;;;;;;8.57;6.83;;;;;;;;;;5093266;28;20179;-61
2021/04/10 02:24:49;;;;;;;7.53;6.67;;;;;;;;;;5093124;28;20187;-63
2021/04/10 02:27:15;;;;;;;7.90;7.10;;;;;;;;;;5075272;28;20184;-62
2021/04/10 02:29:42;;;;;;;7.03;6.37;;;;;;;;;;5083504;28;20794;-62
2021/04/10 02:32:14;;;;;;;7.70;6.90;;;;;;;;;;5055269;28;20191;-61
2021/04/10 02:34:52;;;;;;;7.10;6.40;;;;;;;;;;5089967;28;20267;-61
2021/04/10 02:37:18;;;;;;;7.80;7.00;;;;;;;;;;5086706;28;20219;-62
2021/04/10 02:39:46;;;;;;;7.00;6.30;;;;;;;;;;5072943;28;20186;-62
2021/04/10 02:42:13;;;;;;;7.53;6.83;;;;;;;;;;5092046;28;20178;-62
2021/04/10 02:44:46;;;;;;;7.43;6.73;;;;;;;;;;5068742;28;20179;-61
2021/04/10 02:47:14;;;;;;;7.57;6.63;;;;;;;;;;5077992;28;20522;-62
2021/04/10 02:49:42;;;;;;;6.93;6.23;;;;;;;;;;5090834;28;20623;-61
2021/04/10 02:52:09;;;;;;;7.03;6.33;;;;;;;;;;5092817;28;20259;-61
2021/04/10 02:54:37;;;;;;;9.60;7.07;;;;;;;;;;5090158;28;20180;-62
2021/04/10 02:57:03;;;;;;;7.60;6.90;;;;;;;;;;5091662;28;20225;-61
2021/04/10 02:59:30;;;;;;;6.90;6.20;;;;;;;;;;5090272;28;20164;-61
2021/04/10 03:01:58;;;;;;;7.73;6.50;;;;;;;;;;5091089;28;20176;-62
2021/04/10 03:04:24;;;;;;;7.60;6.90;;;;;;;;;;5068805;28;20176;-62
2021/04/10 03:06:50;;;;;;;7.43;6.73;;;;;;;;;;5087022;28;20200;-62
2021/04/10 03:09:16;;;;;;;7.70;7.00;;;;;;;;;;5080277;28;20218;-63
2021/04/10 03:11:44;;;;;;;7.70;6.70;;;;;;;;;;5078726;28;20175;-61
2021/04/10 03:14:10;;;;;;;8.03;7.33;;;;;;;;;;5091870;28;20196;-64
2021/04/10 03:16:36;;;;;;;8.63;7.30;;;;;;;;;;5077425;28;20290;-64
2021/04/10 03:19:04;;;;;;;7.70;6.90;;;;;;;;;;5060653;28;20186;-62
2021/04/10 03:21:30;;;;;;;7.80;6.93;;;;;;;;;;5089624;28;20176;-61
2021/04/10 03:23:56;;;;;;;8.07;7.30;;;;;;;;;;5085141;28;20180;-61
2021/04/10 03:26:23;;;;;;;7.93;7.13;;;;;;;;;;5087423;28;20510;-62
2021/04/10 03:28:49;;;;;;;7.73;7.03;;;;;;;;;;5072067;28;20219;-62
2021/04/10 03:31:15;;;;;;;7.70;7.00;;;;;;;;;;5078587;28;20168;-61
2021/04/10 03:33:42;;;;;;;8.07;7.27;;;;;;;;;;5081924;28;20578;-63
2021/04/10 03:36:08;;;;;;;7.50;6.80;;;;;;;;;;5072961;28;20539;-61
2021/04/10 03:38:34;;;;;;;8.10;7.30;;;;;;;;;;5087693;28;20570;-61
2021/04/10 03:41:01;;;;;;;9.10;8.23;;;;;;;;;;5066599;28;20180;-61
2021/04/10 03:43:27;;;;;;;9.07;8.13;;;;;;;;;;5075144;28;20187;-62
2021/04/10 03:45:53;;;;;;;8.80;7.83;;;;;;;;;;5091214;28;20186;-61
2021/04/10 03:48:19;;;;;;;8.93;8.03;;;;;;;;;;5056871;28;20204;-62
2021/04/10 03:50:45;;;;;;;9.87;8.90;;;;;;;;;;5091735;28;20230;-61
2021/04/10 03:53:11;;;;;;;8.87;8.07;;;;;;;;;;5074719;28;20197;-62
2021/04/10 03:55:37;;;;;;;9.20;8.07;;;;;;;;;;5078447;28;20176;-62
2021/04/10 03:58:04;;;;;;;9.70;8.70;;;;;;;;;;5091758;28;20176;-61
2021/04/10 04:00:30;;;;;;;8.33;7.53;;;;;;;;;;5058420;28;20639;-61
2021/04/10 04:02:56;;;;;;;9.17;8.17;;;;;;;;;;5086563;28;20183;-62
2021/04/10 04:05:23;;;;;;;9.00;8.03;;;;;;;;;;5090672;28;20595;-62
2021/04/10 04:07:49;;;;;;;9.50;8.33;;;;;;;;;;5078443;28;20188;-62
2021/04/10 04:10:15;;;;;;;9.50;8.60;;;;;;;;;;5086355;28;20175;-61
2021/04/10 04:12:41;;;;;;;9.47;8.57;;;;;;;;;;5090522;28;20209;-61
2021/04/10 04:15:08;;;;;;;9.57;8.40;;;;;;;;;;5087673;28;20614;-62
2021/04/10 04:17:34;;;;;;;12.17;8.73;;;;;;;;;;5089936;28;20178;-61
2021/04/10 04:20:00;;;;;;;9.13;8.23;;;;;;;;;;5084893;28;20211;-62
2021/04/10 04:22:26;;;;;;;9.53;8.43;;;;;;;;;;5089115;28;20642;-62
2021/04/10 04:24:52;;;;;;;9.57;8.67;;;;;;;;;;5077529;28;20212;-63
2021/04/10 04:27:18;;;;;;;10.43;9.03;;;;;;;;;;5087349;28;20213;-62
2021/04/10 04:29:44;;;;;;;9.33;8.43;;;;;;;;;;5059311;28;20216;-61
2021/04/10 04:32:10;;;;;;;9.83;8.83;;;;;;;;;;5077613;28;20183;-62
2021/04/10 04:34:36;;;;;;;8.87;8.07;;;;;;;;;;5072254;28;20183;-62
2021/04/10 04:37:03;;;;;;;9.27;8.37;;;;;;;;;;5090018;28;20227;-62
2021/04/10 04:39:29;;;;;;;9.70;8.73;;;;;;;;;;5079466;28;20183;-62
2021/04/10 04:41:55;;;;;;;10.70;9.70;;;;;;;;;;5080053;28;20179;-62
2021/04/10 04:44:21;;;;;;;10.47;8.93;;;;;;;;;;5089087;28;20634;-62
2021/04/10 04:46:47;;;;;;;9.73;8.80;;;;;;;;;;5072386;28;20742;-63
2021/04/10 04:49:13;;;;;;;10.83;9.50;;;;;;;;;;5072120;28;20233;-62
2021/04/10 04:51:39;;;;;;;11.07;9.80;;;;;;;;;;5087533;28;20279;-62
2021/04/10 04:54:05;;;;;;;10.60;9.60;;;;;;;;;;5072450;28;20650;-61
2021/04/10 04:56:31;;;;;;;10.80;9.80;;;;;;;;;;5062796;28;20187;-62
2021/04/10 04:58:57;;;;;;;10.57;9.47;;;;;;;;;;5089734;28;20175;-64
2021/04/10 05:01:23;;;;;;;10.73;9.63;;;;;;;;;;5075674;28;20199;-61
2021/04/10 05:03:49;;;;;;;11.13;10.03;;;;;;;;;;5090516;28;20627;-61
2021/04/10 05:06:15;;;;;;;14.13;10.30;;;;;;;;;;5090810;28;20179;-62
2021/04/10 05:08:41;;;;;;;11.03;10.03;;;;;;;;;;5081717;28;20183;-63
2021/04/10 05:11:08;;;;;;;12.23;11.10;;;;;;;;;;5088912;28;20545;-64
2021/04/10 05:13:34;;;;;;;10.97;9.77;;;;;;;;;;5076742;28;20200;-62
2021/04/10 05:16:00;;;;;;;11.20;10.07;;;;;;;;;;5083330;28;20172;-62
2021/04/10 05:18:26;;;;;;;11.95;10.82;;;;;;;;;;5062652;28;20447;-61
2021/04/10 05:20:52;;;;;;;11.37;10.23;;;;;;;;;;5093012;28;20190;-61
2021/04/10 05:23:22;;;;;;;10.43;9.43;;;;;;;;;;5091934;28;20182;-64
2021/04/10 05:25:48;;;;;;;10.90;9.90;;;;;;;;;;5078121;28;20187;-64
2021/04/10 05:28:14;;;;;;;11.23;9.60;;;;;;;;;;5075931;28;20189;-63
2021/04/10 05:30:40;;;;;;;10.47;9.47;;;;;;;;;;5076851;28;20244;-61
2021/04/10 05:33:06;;;;;;;11.60;9.70;;;;;;;;;;5088667;28;20250;-62
2021/04/10 05:35:32;;;;;;;10.20;9.20;;;;;;;;;;5089202;28;20179;-61
2021/04/10 05:37:59;;;;;;;11.30;10.20;;;;;;;;;;5067273;28;20202;-62
2021/04/10 05:40:25;;;;;;;11.33;10.13;;;;;;;;;;5073574;28;20225;-62
2021/04/10 05:42:51;;;;;;;12.57;11.27;;;;;;;;;;5063846;28;20180;-62
2021/04/10 05:45:17;;;;;;;11.07;9.67;;;;;;;;;;5076741;28;20180;-62
2021/04/10 05:47:43;;;;;;;11.10;10.00;;;;;;;;;;5071821;28;20187;-61
2021/04/10 05:50:09;;;;;;;10.93;9.67;;;;;;;;;;5077908;28;20203;-61
2021/04/10 05:52:35;;;;;;;10.90;9.87;;;;;;;;;;5055438;28;20211;-62
2021/04/10 05:55:02;;;;;;;10.97;9.97;;;;;;;;;;5084726;28;20187;-62
2021/04/10 05:57:28;;;;;;;11.20;9.90;;;;;;;;;;5065205;28;20688;-62
2021/04/10 05:59:54;;;;;;;10.83;9.80;;;;;;;;;;5069302;28;20267;-61
2021/04/10 06:02:20;;;;;;;10.60;9.40;;;;;;;;;;5085517;28;20184;-61
2021/04/10 06:04:46;;;;;;;9.97;8.97;;;;;;;;;;5071510;28;20538;-62
2021/04/10 06:07:12;;;;;;;10.57;9.60;;;;;;;;;;5054622;28;20230;-61
2021/04/10 06:09:38;;;;;;;10.23;9.23;;;;;;;;;;5065618;28;20198;-62
2021/04/10 06:12:05;;;;;;;10.13;9.13;;;;;;;;;;5059521;28;20569;-61
2021/04/10 06:14:31;;;;;;;11.13;9.47;;;;;;;;;;5084058;28;20669;-62
2021/04/10 06:16:57;;;;;;;10.27;9.30;;;;;;;;;;5087871;28;20180;-62
2021/04/10 06:19:23;;;;;;;9.97;9.03;;;;;;;;;;5063851;28;20184;-61
2021/04/10 06:21:49;;;;;;;10.67;9.57;;;;;;;;;;5090391;28;20176;-61
2021/04/10 06:24:16;;;;;;;9.90;8.90;;;;;;;;;;5089716;28;20538;-61
2021/04/10 06:26:42;;;;;;;9.97;9.07;;;;;;;;;;5054618;28;20180;-61
2021/04/10 06:29:08;;;;;;;10.47;9.43;;;;;;;;;;5079613;28;20215;-62
2021/04/10 06:31:35;;;;;;;9.67;8.67;;;;;;;;;;5091905;28;20187;-61
2021/04/10 06:34:01;;;;;;;9.40;8.50;;;;;;;;;;5087034;28;20207;-62
2021/04/10 06:36:27;;;;;;;10.20;9.20;;;;;;;;;;5084358;28;20169;-62
2021/04/10 06:38:54;;;;;;;9.37;8.37;;;;;;;;;;5073488;28;20738;-61
2021/04/10 06:41:20;;;;;;;9.57;8.50;;;;;;;;;;5088638;28;20183;-62
2021/04/10 06:43:46;;;;;;;9.53;8.63;;;;;;;;;;5065396;28;20613;-61
2021/04/10 06:46:12;;;;;;;11.33;9.10;;;;;;;;;;5072010;28;20188;-61
2021/04/10 06:48:43;;;;;;;10.70;9.60;;;;;;;;;;5091574;28;20420;-61
2021/04/10 06:51:10;;;;;;;9.13;8.13;;;;;;;;;;5070571;28;20219;-61
2021/04/10 06:53:42;;;;;;;9.10;8.20;;;;;;;;;;5091050;28;20203;-62
2021/04/10 06:56:09;;;;;;;9.87;8.87;;;;;;;;;;5092286;28;20184;-61
2021/04/10 06:58:58;;;;;;;10.53;9.43;;;;;;;;;;5088279;28;20180;-62
2021/04/10 07:01:24;;;;;;;11.03;9.80;;;;;;;;;;5077970;28;20188;-64
2021/04/10 07:03:51;;;;;;;10.40;9.30;;;;;;;;;;5088629;28;20256;-62
2021/04/10 07:06:18;;;;;;;9.73;8.73;;;;;;;;;;5085926;28;20191;-61
2021/04/10 07:08:44;;;;;;;10.90;9.80;;;;;;;;;;5086564;28;20267;-64
2021/04/10 07:11:10;;;;;;;10.47;9.50;;;;;;;;;;5085775;28;20241;-62
2021/04/10 07:13:36;;;;;;;10.83;9.70;;;;;;;;;;5089776;28;20674;-61
2021/04/10 07:16:03;;;;;;;10.20;8.73;;;;;;;;;;5084097;28;20248;-61
2021/04/10 07:18:29;;;;;;;10.87;9.77;;;;;;;;;;5056291;28;20229;-62
2021/04/10 07:21:31;;;;;;;9.83;8.83;;;;;;;;;;5091851;28;20168;-61
2021/04/10 07:23:57;;;;;;;10.47;9.37;;;;;;;;;;4989825;28;20195;-61
2021/04/10 07:26:42;;;;;;;9.47;8.47;;;;;;;;;;5069685;28;20220;-61
2021/04/10 07:29:27;;;;;;;13.23;9.87;;;;;;;;;;5065421;28;20236;-62
2021/04/10 07:31:53;;;;;;;10.57;9.57;;;;;;;;;;5077929;28;20207;-62
2021/04/10 07:34:21;;;;;;;11.23;10.13;;;;;;;;;;5088851;28;20558;-61
2021/04/10 07:36:55;;;;;;;10.70;9.70;;;;;;;;;;5091469;28;20184;-61
2021/04/10 07:39:21;;;;;;;11.20;10.00;;;;;;;;;;5090818;28;20170;-61
2021/04/10 07:41:57;;;;;;;12.60;10.97;;;;;;;;;;5073667;28;20176;-61
2021/04/10 07:44:35;;;;;;;16.37;11.67;;;;;;;;;;5080447;28;20168;-61
2021/04/10 07:47:03;;;;;;;15.83;12.90;;;;;;;;;;5074557;28;20188;-61
2021/04/10 07:49:29;;;;;;;12.23;11.03;;;;;;;;;;5091381;28;20200;-61
2021/04/10 07:51:56;;;;;;;12.00;10.90;;;;;;;;;;5083956;28;20172;-62
2021/04/10 07:54:24;;;;;;;14.47;13.10;;;;;;;;;;5081562;28;20191;-61
2021/04/10 07:56:54;;;;;;;13.87;12.37;;;;;;;;;;5088808;28;20697;-62
2021/04/10 07:59:20;;;;;;;14.33;12.83;;;;;;;;;;5066896;28;20176;-62
2021/04/10 08:01:46;;;;;;;12.67;11.37;;;;;;;;;;5072313;28;20198;-61
2021/04/10 08:04:13;;;;;;;13.53;12.23;;;;;;;;;;5061071;28;20188;-61
2021/04/10 08:06:52;;;;;;;14.50;13.03;;;;;;;;;;5084741;28;20212;-61
2021/04/10 08:09:26;;;;;;;13.00;11.80;;;;;;;;;;5060789;28;20186;-62
2021/04/10 08:11:52;;;;;;;13.73;12.33;;;;;;;;;;5087308;28;20299;-61
2021/04/10 08:14:18;;;;;;;14.47;13.00;;;;;;;;;;5071352;28;20213;-61
2021/04/10 08:16:48;;;;;;;14.17;12.77;;;;;;;;;;5059784;28;20200;-61
2021/04/10 08:19:15;;;;;;;14.50;12.73;;;;;;;;;;5072997;28;20199;-61
2021/04/10 08:21:51;;;;;;;16.00;14.40;;;;;;;;;;5072745;28;20631;-61
2021/04/10 08:24:26;;;;;;;14.23;12.73;;;;;;;;;;5079594;28;20167;-61
2021/04/10 08:26:53;;;;;;;17.47;15.53;;;;;;;;;;5090226;28;20190;-61
2021/04/10 08:29:20;;;;;;;17.13;15.37;;;;;;;;;;5084979;28;20208;-61
2021/04/10 08:31:46;;;;;;;17.20;15.20;;;;;;;;;;5090119;28;20188;-62
2021/04/10 08:34:13;;;;;;;14.77;13.27;;;;;;;;;;5064855;28;20210;-61
2021/04/10 08:36:40;;;;;;;14.67;12.97;;;;;;;;;;5070120;28;20627;-61
2021/04/10 08:39:08;;;;;;;15.57;13.63;;;;;;;;;;5082668;28;20180;-62
2021/04/10 08:41:35;;;;;;;16.67;14.97;;;;;;;;;;5091525;28;20172;-61
2021/04/10 08:44:01;;;;;;;19.77;15.17;;;;;;;;;;5067457;28;20275;-62
2021/04/10 08:46:29;;;;;;;20.20;18.10;;;;;;;;;;5086211;28;20229;-62
2021/04/10 08:48:56;;;;;;;24.07;20.57;;;;;;;;;;5089646;28;20183;-63
2021/04/10 08:51:23;;;;;;;21.57;19.37;;;;;;;;;;5076600;28;20250;-61
2021/04/10 08:53:51;;;;;;;22.37;19.20;;;;;;;;;;5090411;28;20198;-61
2021/04/10 08:56:22;;;;;;;24.07;20.90;;;;;;;;;;5084695;28;20176;-61
2021/04/10 08:58:49;;;;;;;22.30;19.90;;;;;;;;;;5093023;28;20582;-61
2021/04/10 09:01:23;;;;;;;25.33;20.53;;;;;;;;;;5074011;28;20171;-61
2021/04/10 09:03:49;;;;;;;23.63;20.30;;;;;;;;;;5096632;28;20536;-61
2021/04/10 09:06:18;;;;;;;23.77;21.03;;;;;;;;;;5093062;28;20187;-63
2021/04/10 09:08:44;;;;;;;25.10;22.00;;;;;;;;;;5079405;28;20183;-61
2021/04/10 09:11:19;;;;;;;23.13;20.43;;;;;;;;;;5088062;28;20180;-64
2021/04/10 09:13:46;;;;;;;28.50;21.03;;;;;;;;;;5080619;28;20670;-63
2021/04/10 09:16:28;;;;;;;30.07;22.57;;;;;;;;;;5061528;28;20724;-59
2021/04/10 09:18:55;;;;;;;36.40;24.40;;;;;;;;;;5080165;28;20183;-61
2021/04/10 09:21:36;;;;;;;32.03;25.10;;;;;;;;;;5084233;28;20182;-62
2021/04/10 09:24:16;;;;;;;34.63;24.20;;;;;;;;;;5062941;28;20195;-61
2021/04/10 09:26:59;;;;;;;31.17;23.93;;;;;;;;;;5079039;28;20171;-61
2021/04/10 09:29:26;;;;;;;32.07;24.43;;;;;;;;;;5081422;28;20204;-61
2021/04/10 09:31:59;;;;;;;28.50;23.47;;;;;;;;;;5054901;28;20184;-61
2021/04/10 09:34:48;;;;;;;26.03;21.57;;;;;;;;;;5075252;28;20294;-60
2021/04/10 09:37:20;;;;;;;28.67;23.00;;;;;;;;;;5093384;28;20180;-60
2021/04/10 09:39:59;;;;;;;29.00;25.13;;;;;;;;;;5071789;28;20187;-61
2021/04/10 09:42:31;;;;;;;29.07;23.60;;;;;;;;;;5069687;28;20640;-60
2021/04/10 09:45:11;;;;;;;27.67;22.67;;;;;;;;;;5089991;28;20172;-60
2021/04/10 09:47:59;;;;;;;27.93;23.20;;;;;;;;;;5095825;28;20621;-61
2021/04/10 09:50:26;;;;;;;26.00;21.97;;;;;;;;;;5093677;28;20187;-61
2021/04/10 09:52:56;;;;;;;27.37;23.23;;;;;;;;;;5068839;28;20203;-60
2021/04/10 09:55:23;;;;;;;30.80;24.40;;;;;;;;;;5076876;28;20183;-61
2021/04/10 09:57:55;;;;;;;27.17;22.00;;;;;;;;;;5080397;28;20175;-61
2021/04/10 10:00:28;;;;;;;32.67;25.67;;;;;;;;;;5084211;28;20187;-62
2021/04/10 10:02:55;;;;;;;27.37;22.97;;;;;;;;;;5079454;28;20243;-61
2021/04/10 10:05:22;;;;;;;24.47;21.87;;;;;;;;;;5080678;28;20218;-63
2021/04/10 10:07:48;;;;;;;27.17;22.87;;;;;;;;;;5085192;28;20188;-60
2021/04/10 10:10:15;;;;;;;30.33;22.37;;;;;;;;;;5079131;28;20635;-61
2021/04/10 10:12:41;;;;;;;27.03;22.50;;;;;;;;;;5076509;28;20267;-61
2021/04/10 10:15:22;;;;;;;26.50;22.67;;;;;;;;;;5073330;28;20238;-61
2021/04/10 10:17:48;;;;;;;26.73;22.57;;;;;;;;;;5058678;28;20543;-61
2021/04/10 10:20:15;;;;;;;25.97;22.80;;;;;;;;;;5092020;28;20270;-61
2021/04/10 10:22:42;;;;;;;26.33;22.67;;;;;;;;;;5088009;28;20190;-60
2021/04/10 10:25:08;;;;;;;28.93;23.63;;;;;;;;;;5072040;28;20238;-64
2021/04/10 10:27:34;;;;;;;29.63;22.73;;;;;;;;;;5070399;28;20183;-61
2021/04/10 10:30:00;;;;;;;30.70;24.40;;;;;;;;;;5065026;28;20318;-62
2021/04/10 10:32:26;;;;;;;32.43;26.17;;;;;;;;;;5087670;28;20272;-63
2021/04/10 10:34:52;;;;;;;29.33;23.80;;;;;;;;;;5091316;28;20198;-62
2021/04/10 10:37:24;;;;;;;31.13;25.33;;;;;;;;;;5093921;28;20534;-61
2021/04/10 10:39:50;;;;;;;30.00;25.00;;;;;;;;;;5099003;28;20171;-63
2021/04/10 10:42:23;;;;;;;28.67;23.30;;;;;;;;;;5094403;28;20164;-62
2021/04/10 10:44:49;;;;;;;32.27;26.13;;;;;;;;;;5092129;28;20242;-63
2021/04/10 10:47:15;;;;;;;28.77;25.23;;;;;;;;;;5089560;28;20179;-62
2021/04/10 10:49:41;;;;;;;29.33;24.23;;;;;;;;;;5072877;28;20272;-62
2021/04/10 10:52:14;;;;;;;32.80;25.57;;;;;;;;;;5068078;28;20406;-63
2021/04/10 10:54:41;;;;;;;31.00;25.73;;;;;;;;;;5093153;28;20191;-63
2021/04/10 10:57:12;;;;;;;28.13;23.57;;;;;;;;;;5074759;28;20630;-64
2021/04/10 10:59:38;;;;;;;31.00;25.60;;;;;;;;;;5076737;28;20405;-64
2021/04/10 11:02:04;;;;;;;28.30;25.13;;;;;;;;;;5071940;28;20184;-64
2021/04/10 11:04:32;;;;;;;32.17;27.17;;;;;;;;;;5094821;28;20184;-64
2021/04/10 11:07:00;;;;;;;31.53;25.63;;;;;;;;;;5082593;28;20254;-64
2021/04/10 11:09:27;;;;;;;31.07;25.27;;;;;;;;;;5086476;28;20180;-64
2021/04/10 11:11:55;;;;;;;30.53;26.00;;;;;;;;;;5077450;28;20172;-63
2021/04/10 11:14:22;;;;;;;33.90;24.83;;;;;;;;;;5052940;28;20354;-63
2021/04/10 11:16:48;;;;;;;30.07;24.40;;;;;;;;;;5091879;28;20191;-62
2021/04/10 11:19:27;;;;;;;30.43;25.57;;;;;;;;;;5067456;28;20643;-63
2021/04/10 11:21:53;;;;;;;28.27;23.67;;;;;;;;;;5081410;28;20523;-62
2021/04/10 11:24:19;;;;;;;31.93;26.00;;;;;;;;;;5069388;28;20582;-63
2021/04/10 11:26:47;;;;;;;29.63;25.47;;;;;;;;;;5089436;28;20551;-63
2021/04/10 11:29:28;;;;;;;29.30;24.03;;;;;;;;;;5091941;28;20599;-63
2021/04/10 11:32:03;;;;;;;34.83;25.03;;;;;;;;;;5083972;28;20174;-63
2021/04/10 11:34:37;;;;;;;31.50;24.07;;;;;;;;;;5067438;28;20226;-63
2021/04/10 11:37:04;;;;;;;28.93;22.40;;;;;;;;;;5102057;28;20176;-63
2021/04/10 11:39:31;;;;;;;33.03;25.60;;;;;;;;;;5091182;28;20656;-64
2021/04/10 11:41:57;;;;;;;30.53;24.73;;;;;;;;;;5098363;28;20217;-62
2021/04/10 11:44:24;;;;;;;27.87;23.23;;;;;;;;;;5100492;28;20187;-63
2021/04/10 11:47:00;;;;;;;30.67;24.07;;;;;;;;;;5081760;28;20184;-63
2021/04/10 11:49:27;;;;;;;27.50;23.43;;;;;;;;;;5099125;28;20249;-62
2021/04/10 11:51:53;;;;;;;27.00;23.00;;;;;;;;;;5096793;28;20634;-63
2021/04/10 11:54:32;;;;;;;33.73;25.07;;;;;;;;;;5098329;28;20229;-63
2021/04/10 11:56:58;;;;;;;32.38;27.88;;;;;;;;;;5096143;28;20400;-63
2021/04/10 11:59:32;;;;;;;28.57;23.93;;;;;;;;;;5077900;28;20419;-63
2021/04/10 12:02:02;;;;;;;27.23;23.33;;;;;;;;;;5097282;28;20171;-63
2021/04/10 12:04:34;;;;;;;30.00;24.70;;;;;;;;;;5072176;28;20716;-62
2021/04/10 12:07:07;;;;;;;31.27;25.20;;;;;;;;;;5097811;28;20537;-63
2021/04/10 12:09:35;;;;;;;33.23;25.87;;;;;;;;;;5078379;28;20175;-62
2021/04/10 12:12:02;;;;;;;30.30;24.73;;;;;;;;;;5089792;28;20199;-65
2021/04/10 12:14:28;;;;;;;31.17;24.70;;;;;;;;;;5065059;28;20295;-62
2021/04/10 12:16:54;;;;;;;32.20;24.03;;;;;;;;;;5078576;28;20251;-63
2021/04/10 12:19:21;;;;;;;27.10;23.37;;;;;;;;;;5082172;28;20172;-63
2021/04/10 12:21:48;;;;;;;27.87;23.77;;;;;;;;;;5080084;28;20694;-64
2021/04/10 12:24:14;;;;;;;28.60;22.90;;;;;;;;;;5080076;28;20267;-63
2021/04/10 12:26:40;;;;;;;30.23;23.40;;;;;;;;;;5087340;28;20266;-63
2021/04/10 12:29:06;;;;;;;27.77;23.73;;;;;;;;;;5063436;28;20226;-64
2021/04/10 12:31:32;;;;;;;28.03;22.73;;;;;;;;;;5057272;28;20192;-63
2021/04/10 12:33:58;;;;;;;27.43;22.60;;;;;;;;;;5060130;28;20266;-63
2021/04/10 12:36:24;;;;;;;26.63;22.37;;;;;;;;;;5048007;28;20192;-63
2021/04/10 12:38:51;;;;;;;26.10;22.93;;;;;;;;;;5065375;28;20184;-63
2021/04/10 12:41:17;;;;;;;29.63;24.57;;;;;;;;;;5032600;28;20192;-63
2021/04/10 12:43:43;;;;;;;27.07;23.00;;;;;;;;;;5035573;28;20264;-63
2021/04/10 12:46:09;;;;;;;25.23;22.53;;;;;;;;;;5057037;28;20849;-63
2021/04/10 12:48:35;;;;;;;27.17;23.33;;;;;;;;;;5062195;28;20188;-62
2021/04/10 12:51:01;;;;;;;26.27;23.27;;;;;;;;;;5049465;28;20545;-64
2021/04/10 12:53:27;;;;;;;26.60;23.00;;;;;;;;;;5041391;28;20205;-62
2021/04/10 12:55:54;;;;;;;26.50;22.57;;;;;;;;;;5060667;28;20203;-62
2021/04/10 12:58:20;;;;;;;27.07;22.23;;;;;;;;;;5042066;28;20714;-64
2021/04/10 13:00:46;;;;;;;29.93;23.93;;;;;;;;;;5058429;28;20183;-61
2021/04/10 13:03:12;;;;;;;29.27;23.27;;;;;;;;;;5061146;28;20184;-62
2021/04/10 13:05:38;;;;;;;28.50;22.87;;;;;;;;;;5066694;28;20199;-64
2021/04/10 13:08:04;;;;;;;26.13;22.50;;;;;;;;;;5060815;28;20173;-62
2021/04/10 13:10:31;;;;;;;25.93;23.13;;;;;;;;;;5050489;28;20185;-61
2021/04/10 13:12:57;;;;;;;26.37;22.00;;;;;;;;;;5050132;28;20223;-62
2021/04/10 13:15:23;;;;;;;24.20;21.43;;;;;;;;;;5053253;28;20612;-61
2021/04/10 13:17:49;;;;;;;28.00;22.47;;;;;;;;;;5056716;28;20244;-62
2021/04/10 13:20:19;;;;;;;24.87;21.77;;;;;;;;;;5054111;28;20177;-61
2021/04/10 13:22:46;;;;;;;27.70;21.47;;;;;;;;;;5055925;28;20199;-62
2021/04/10 13:25:12;;;;;;;26.17;22.43;;;;;;;;;;5067273;28;20188;-64
2021/04/10 13:27:39;;;;;;;25.80;23.03;;;;;;;;;;5059326;28;20230;-61
2021/04/10 13:30:06;;;;;;;24.23;21.17;;;;;;;;;;5072515;28;20220;-62
2021/04/10 13:32:32;;;;;;;29.60;22.17;;;;;;;;;;5083128;28;20190;-61
2021/04/10 13:34:58;;;;;;;27.97;22.90;;;;;;;;;;5099574;28;20179;-61
2021/04/10 13:37:24;;;;;;;26.10;22.87;;;;;;;;;;5094053;28;20189;-60
2021/04/10 13:39:50;;;;;;;28.23;23.13;;;;;;;;;;5093969;28;20172;-62
2021/04/10 13:42:16;;;;;;;28.17;22.67;;;;;;;;;;5093976;28;20176;-61
2021/04/10 13:44:42;;;;;;;28.53;22.53;;;;;;;;;;5094259;28;20183;-62
2021/04/10 13:47:08;;;;;;;26.77;23.20;;;;;;;;;;5084918;28;20574;-61
2021/04/10 13:49:34;;;;;;;27.07;22.77;;;;;;;;;;5090395;28;20917;-61
2021/04/10 13:52:00;;;;;;;26.83;22.70;;;;;;;;;;5078636;28;20263;-61
2021/04/10 13:54:26;;;;;;;26.37;22.97;;;;;;;;;;5093830;28;20221;-61
2021/04/10 13:56:53;;;;;;;27.30;23.13;;;;;;;;;;5091773;28;20172;-61
2021/04/10 13:59:19;;;;;;;26.57;22.40;;;;;;;;;;5080726;28;20165;-61
2021/04/10 14:01:45;;;;;;;25.93;22.57;;;;;;;;;;5070224;28;20183;-61
2021/04/10 14:04:20;;;;;;;26.23;22.47;;;;;;;;;;5093654;28;20184;-61
2021/04/10 14:06:46;;;;;;;25.67;22.87;;;;;;;;;;5084449;28;20246;-61
2021/04/10 14:09:12;;;;;;;23.70;21.20;;;;;;;;;;5082218;28;20188;-61
2021/04/10 14:11:38;;;;;;;25.17;22.27;;;;;;;;;;5095996;28;20211;-60
2021/04/10 14:14:04;;;;;;;24.83;22.23;;;;;;;;;;5103034;28;20218;-60
2021/04/10 14:16:30;;;;;;;25.87;23.07;;;;;;;;;;5072747;28;20176;-61
2021/04/10 14:18:56;;;;;;;24.33;21.37;;;;;;;;;;5080544;28;20273;-63
2021/04/10 14:21:23;;;;;;;25.00;22.30;;;;;;;;;;5092999;28;20533;-63
2021/04/10 14:23:51;;;;;;;25.93;23.13;;;;;;;;;;5093009;28;20631;-62
2021/04/10 14:26:19;;;;;;;21.47;19.23;;;;;;;;;;5093204;28;20205;-63
2021/04/10 14:28:47;;;;;;;26.57;22.63;;;;;;;;;;5074444;28;20238;-64
2021/04/10 14:31:13;;;;;;;25.63;22.00;;;;;;;;;;5092120;28;20171;-62
2021/04/10 14:33:40;;;;;;;24.03;20.90;;;;;;;;;;5090739;28;20696;-62